createdAt,value
2018-09-28T00:00:45.563Z,7.03
2018-09-28T00:03:17.206Z,9.40
2018-09-28T00:05:48.555Z,6.93
2018-09-28T00:08:19.900Z,7.47
2018-09-28T00:10:51.081Z,7.80
2018-09-28T00:13:22.338Z,8.93
2018-09-28T00:15:53.500Z,9.47
2018-09-28T00:18:24.948Z,7.63
2018-09-28T00:20:56.252Z,9.00
2018-09-28T00:23:27.253Z,10.67
2018-09-28T00:25:58.476Z,7.20
2018-09-28T00:28:29.823Z,9.20
2018-09-28T00:31:01.020Z,10.80
2018-09-28T00:33:32.267Z,8.40
2018-09-28T00:36:03.407Z,8.27
2018-09-28T00:38:34.619Z,8.13
2018-09-28T00:41:05.799Z,5.57
2018-09-28T00:43:37.147Z,8.57
2018-09-28T00:46:08.396Z,8.30
2018-09-28T00:48:40.112Z,6.50
2018-09-28T00:51:11.324Z,6.67
2018-09-28T00:53:42.747Z,7.17
2018-09-28T00:56:14.128Z,8.63
2018-09-28T00:58:45.309Z,7.07
2018-09-28T01:01:16.307Z,7.20
2018-09-28T01:03:47.295Z,8.60
2018-09-28T01:06:18.467Z,7.90
2018-09-28T01:08:49.678Z,7.63
2018-09-28T01:11:20.631Z,7.50
2018-09-28T01:13:52.535Z,10.13
2018-09-28T01:16:23.670Z,10.47
2018-09-28T01:18:57.324Z,8.40
2018-09-28T01:21:28.579Z,8.03
2018-09-28T01:23:59.909Z,6.10
2018-09-28T01:26:31.172Z,7.77
2018-09-28T01:29:02.460Z,8.17
2018-09-28T01:31:33.558Z,6.10
2018-09-28T01:34:04.745Z,10.07
2018-09-28T01:36:36.212Z,7.67
2018-09-28T01:39:08.776Z,11.93
2018-09-28T01:41:40.240Z,12.57
2018-09-28T01:44:11.502Z,7.13
2018-09-28T01:46:42.883Z,8.50
2018-09-28T01:49:14.271Z,7.60
2018-09-28T01:51:45.927Z,9.93
2018-09-28T01:54:17.271Z,11.83
2018-09-28T01:56:48.420Z,9.07
2018-09-28T01:59:19.843Z,7.97
2018-09-28T02:01:51.013Z,7.30
2018-09-28T02:04:22.372Z,7.47
2018-09-28T02:06:53.585Z,8.47
2018-09-28T02:09:24.805Z,7.73
2018-09-28T02:11:56.151Z,10.77
2018-09-28T02:14:27.363Z,6.57
2018-09-28T02:16:58.531Z,10.23
2018-09-28T02:19:29.948Z,9.03
2018-09-28T02:22:01.116Z,8.63
2018-09-28T02:24:32.500Z,8.70
2018-09-28T02:27:03.706Z,8.27
2018-09-28T02:29:34.994Z,9.90
2018-09-28T02:32:06.433Z,10.83
2018-09-28T02:34:37.456Z,7.93
2018-09-28T02:37:08.937Z,9.47
2018-09-28T02:39:40.223Z,11.50
2018-09-28T02:42:11.430Z,7.90
2018-09-28T02:44:42.622Z,8.60
2018-09-28T02:47:13.659Z,5.37
2018-09-28T02:49:45.013Z,6.87
2018-09-28T02:52:16.456Z,10.10
2018-09-28T02:54:47.825Z,11.77
2018-09-28T02:57:19.205Z,12.83
2018-09-28T02:59:50.463Z,8.47
2018-09-28T03:02:21.563Z,7.33
2018-09-28T03:04:52.592Z,9.07
2018-09-28T03:07:24.628Z,9.57
2018-09-28T03:09:55.907Z,11.27
2018-09-28T03:12:27.120Z,9.67
2018-09-28T03:14:58.291Z,7.50
2018-09-28T03:17:29.497Z,9.53
2018-09-28T03:20:00.890Z,8.90
2018-09-28T03:22:32.130Z,6.77
2018-09-28T03:25:03.549Z,8.37
2018-09-28T03:27:34.900Z,9.33
2018-09-28T03:30:07.272Z,7.83
2018-09-28T03:32:38.418Z,10.47
2018-09-28T03:35:09.643Z,8.33
2018-09-28T03:37:41.010Z,7.43
2018-09-28T03:40:11.992Z,7.40
2018-09-28T03:42:43.195Z,9.53
2018-09-28T03:45:14.873Z,8.20
2018-09-28T03:47:48.351Z,9.77
2018-09-28T03:50:19.854Z,9.37
2018-09-28T03:52:50.891Z,10.53
2018-09-28T03:55:22.393Z,9.17
2018-09-28T03:57:53.951Z,9.33
2018-09-28T04:00:25.336Z,9.00
2018-09-28T04:02:56.720Z,9.73
2018-09-28T04:05:28.059Z,7.90
2018-09-28T04:07:59.707Z,11.73
2018-09-28T04:10:30.831Z,6.73
2018-09-28T04:13:02.500Z,9.40
2018-09-28T04:15:33.788Z,8.13
2018-09-28T04:18:05.009Z,8.53
2018-09-28T04:20:37.424Z,9.70
2018-09-28T04:23:08.740Z,9.67
2018-09-28T04:25:40.003Z,10.40
2018-09-28T04:28:11.215Z,9.90
2018-09-28T04:30:42.443Z,6.87
2018-09-28T04:33:13.692Z,6.07
2018-09-28T04:35:45.000Z,8.33
2018-09-28T04:38:16.293Z,9.50
2018-09-28T04:40:47.728Z,8.20
2018-09-28T04:43:19.088Z,8.40
2018-09-28T04:45:50.639Z,9.97
2018-09-28T04:48:21.851Z,7.90
2018-09-28T04:50:52.828Z,7.80
2018-09-28T04:53:24.023Z,12.87
2018-09-28T04:55:55.220Z,8.33
2018-09-28T04:58:26.426Z,9.13
2018-09-28T05:00:57.466Z,10.70
2018-09-28T05:03:28.804Z,6.93
2018-09-28T05:05:59.795Z,10.07
2018-09-28T05:08:31.054Z,10.90
2018-09-28T05:11:02.662Z,8.80
2018-09-28T05:13:33.892Z,10.40
2018-09-28T05:16:05.463Z,10.10
2018-09-28T05:18:36.542Z,7.93
2018-09-28T05:21:07.748Z,5.57
2018-09-28T05:23:39.150Z,7.80
2018-09-28T05:26:11.011Z,9.20
2018-09-28T05:28:42.102Z,9.87
2018-09-28T05:31:13.360Z,7.93
2018-09-28T05:33:44.642Z,9.90
2018-09-28T05:36:15.847Z,11.97
2018-09-28T05:38:46.848Z,10.50
2018-09-28T05:41:18.039Z,9.50
2018-09-28T05:43:49.252Z,9.40
2018-09-28T05:46:20.725Z,9.27
2018-09-28T05:48:51.813Z,9.03
2018-09-28T05:51:23.104Z,8.07
2018-09-28T05:53:54.403Z,11.07
2018-09-28T05:56:25.609Z,7.93
2018-09-28T05:59:02.034Z,8.27
2018-09-28T06:01:38.090Z,12.23
2018-09-28T06:04:14.096Z,14.73
2018-09-28T06:06:45.432Z,25.63
2018-09-28T06:09:16.527Z,26.57
2018-09-28T06:11:47.818Z,24.00
2018-09-28T06:14:19.021Z,27.10
2018-09-28T06:16:50.369Z,22.17
2018-09-28T06:19:21.943Z,18.30
2018-09-28T06:21:53.236Z,15.30
2018-09-28T06:24:24.998Z,13.03
2018-09-28T06:26:56.199Z,14.87
2018-09-28T06:29:27.422Z,10.40
2018-09-28T06:31:59.082Z,10.50
2018-09-28T06:34:30.426Z,12.77
2018-09-28T06:37:05.111Z,10.27
2018-09-28T06:39:36.110Z,14.57
2018-09-28T06:42:07.387Z,13.60
2018-09-28T06:44:38.766Z,12.10
2018-09-28T06:47:10.257Z,9.27
2018-09-28T06:49:41.279Z,12.67
2018-09-28T06:52:12.653Z,12.00
2018-09-28T06:54:43.823Z,14.33
2018-09-28T06:57:15.020Z,13.40
2018-09-28T06:59:46.085Z,14.07
2018-09-28T07:02:17.466Z,10.77
2018-09-28T07:04:48.831Z,14.23
2018-09-28T07:07:20.567Z,12.97
2018-09-28T07:09:51.766Z,17.57
2018-09-28T07:12:22.978Z,14.40
2018-09-28T07:14:54.162Z,15.33
2018-09-28T07:17:25.385Z,16.37
2018-09-28T07:19:56.595Z,16.33
2018-09-28T07:22:27.946Z,16.37
2018-09-28T07:24:59.187Z,11.33
2018-09-28T07:27:30.392Z,11.43
2018-09-28T07:30:01.538Z,15.53
2018-09-28T07:32:32.903Z,13.97
2018-09-28T07:35:04.179Z,16.70
2018-09-28T07:37:35.341Z,15.87
2018-09-28T07:40:06.519Z,10.37
2018-09-28T07:42:37.665Z,16.83
2018-09-28T07:45:09.399Z,14.70
2018-09-28T07:47:40.720Z,12.23
2018-09-28T07:50:12.084Z,12.60
2018-09-28T07:52:43.494Z,13.30
2018-09-28T07:55:14.818Z,14.07
2018-09-28T07:57:45.993Z,15.63
2018-09-28T08:00:17.004Z,14.47
2018-09-28T08:02:48.376Z,16.60
2018-09-28T08:05:19.603Z,15.73
2018-09-28T08:07:50.947Z,11.80
2018-09-28T08:10:22.157Z,26.20
2018-09-28T08:12:53.645Z,24.90
2018-09-28T08:15:29.671Z,18.47
2018-09-28T08:18:00.717Z,15.20
2018-09-28T08:20:32.159Z,12.80
2018-09-28T08:23:03.252Z,16.40
2018-09-28T08:25:34.613Z,16.37
2018-09-28T08:28:06.079Z,11.83
2018-09-28T08:30:37.761Z,12.10
2018-09-28T08:33:08.752Z,12.27
2018-09-28T08:35:40.232Z,15.37
2018-09-28T08:38:11.539Z,13.77
2018-09-28T08:40:42.755Z,11.30
2018-09-28T08:43:13.747Z,12.50
2018-09-28T08:45:44.920Z,10.00
2018-09-28T08:48:16.115Z,9.00
2018-09-28T08:50:47.311Z,11.83
2018-09-28T08:53:18.303Z,10.97
2018-09-28T08:55:49.423Z,11.60
2018-09-28T08:58:21.100Z,9.07
2018-09-28T09:00:52.120Z,10.37
2018-09-28T09:03:23.455Z,12.03
2018-09-28T09:05:54.683Z,11.87
2018-09-28T09:08:25.674Z,11.13
2018-09-28T09:10:57.126Z,15.90
2018-09-28T09:13:28.234Z,12.80
2018-09-28T09:16:00.095Z,17.83
2018-09-28T09:18:31.392Z,11.03
2018-09-28T09:21:02.613Z,10.77
2018-09-28T09:23:33.570Z,10.20
2018-09-28T09:26:04.616Z,12.17
2018-09-28T09:28:35.817Z,14.70
2018-09-28T09:31:07.277Z,9.43
2018-09-28T09:33:38.376Z,10.33
2018-09-28T09:36:09.830Z,10.80
2018-09-28T09:38:40.952Z,12.53
2018-09-28T09:41:12.361Z,11.43
2018-09-28T09:43:43.753Z,13.53
2018-09-28T09:46:15.522Z,11.87
2018-09-28T09:48:46.471Z,11.63
2018-09-28T09:51:17.489Z,12.00
2018-09-28T09:53:48.691Z,9.20
2018-09-28T09:56:20.142Z,14.33
2018-09-28T09:58:51.598Z,10.17
2018-09-28T10:01:27.597Z,11.97
2018-09-28T10:04:02.895Z,10.87
2018-09-28T10:06:37.765Z,10.00
2018-09-28T10:09:14.131Z,11.13
2018-09-28T10:11:45.323Z,11.47
2018-09-28T10:14:16.314Z,11.57
2018-09-28T10:16:46.952Z,13.67
2018-09-28T10:19:18.199Z,11.67
2018-09-28T10:21:48.800Z,11.00
2018-09-28T10:24:19.521Z,12.37
2018-09-28T10:26:50.215Z,10.60
2018-09-28T10:29:21.382Z,11.20
2018-09-28T10:31:52.545Z,9.93
2018-09-28T10:34:23.823Z,8.07
2018-09-28T10:36:55.086Z,9.87
2018-09-28T10:39:26.967Z,13.43
2018-09-28T10:41:58.084Z,11.67
2018-09-28T10:44:29.894Z,8.27
2018-09-28T10:47:01.012Z,9.00
2018-09-28T10:49:32.028Z,7.40
2018-09-28T10:52:03.601Z,10.83
2018-09-28T10:54:34.593Z,7.83
2018-09-28T10:57:05.255Z,12.70
2018-09-28T10:59:36.627Z,6.20
2018-09-28T11:02:07.634Z,13.27
2018-09-28T11:04:39.168Z,7.63
2018-09-28T11:07:10.371Z,9.25
2018-09-28T11:09:41.039Z,8.47
2018-09-28T11:12:11.627Z,12.30
2018-09-28T11:14:42.307Z,8.13
2018-09-28T11:17:12.987Z,9.63
2018-09-28T11:19:43.610Z,8.93
2018-09-28T11:22:15.229Z,12.33
2018-09-28T11:24:46.099Z,12.40
2018-09-28T11:27:16.828Z,9.43
2018-09-28T11:29:47.518Z,9.27
2018-09-28T11:32:18.576Z,12.40
2018-09-28T11:34:49.281Z,11.33
2018-09-28T11:37:19.888Z,11.53
2018-09-28T11:39:51.016Z,8.10
2018-09-28T11:42:22.123Z,8.85
2018-09-28T11:44:53.563Z,11.90
2018-09-28T11:47:24.158Z,11.30
2018-09-28T11:49:54.839Z,9.40
2018-09-28T11:52:26.091Z,9.20
2018-09-28T11:54:56.861Z,9.80
2018-09-28T11:57:27.583Z,12.43
2018-09-28T11:59:58.200Z,7.60
2018-09-28T12:02:28.911Z,10.65
2018-09-28T12:04:59.551Z,10.10
2018-09-28T12:07:30.242Z,12.07
2018-09-28T12:10:01.013Z,9.88
2018-09-28T12:12:31.664Z,9.30
2018-09-28T12:15:02.300Z,8.83
2018-09-28T12:17:33.389Z,7.83
2018-09-28T12:20:04.679Z,11.33
2018-09-28T12:22:35.676Z,7.45
2018-09-28T12:25:06.731Z,13.38
2018-09-28T12:27:38.430Z,8.83
2018-09-28T12:30:09.947Z,10.48
2018-09-28T12:32:41.512Z,10.28
2018-09-28T12:35:12.926Z,8.20
2018-09-28T12:37:44.379Z,7.35
2018-09-28T12:40:15.740Z,9.70
2018-09-28T12:42:46.788Z,10.18
2018-09-28T12:45:18.501Z,12.30
2018-09-28T12:47:49.779Z,12.65
2018-09-28T12:50:20.776Z,10.88
2018-09-28T12:52:51.948Z,13.20
2018-09-28T12:55:23.453Z,11.10
2018-09-28T12:57:54.605Z,8.23
2018-09-28T13:00:26.285Z,11.10
2018-09-28T13:02:57.292Z,9.73
2018-09-28T13:05:28.898Z,8.33
2018-09-28T13:08:00.093Z,10.10
2018-09-28T13:10:31.295Z,8.63
2018-09-28T13:13:02.553Z,12.30
2018-09-28T13:15:34.152Z,10.20
2018-09-28T13:18:05.484Z,8.90
2018-09-28T13:20:36.949Z,12.47
2018-09-28T13:23:08.504Z,8.63
2018-09-28T13:25:39.611Z,14.57
2018-09-28T13:28:10.795Z,12.85
2018-09-28T13:30:41.993Z,8.53
2018-09-28T13:33:13.392Z,7.20
2018-09-28T13:35:45.050Z,9.35
2018-09-28T13:38:15.739Z,10.13
2018-09-28T13:40:46.973Z,10.20
2018-09-28T13:43:18.327Z,8.53
2018-09-28T13:45:49.681Z,7.75
2018-09-28T13:48:20.973Z,11.88
2018-09-28T13:50:52.443Z,8.58
2018-09-28T13:53:23.669Z,11.33
2018-09-28T13:55:54.341Z,5.57
2018-09-28T13:58:25.052Z,7.83
2018-09-28T14:00:55.657Z,12.03
2018-09-28T14:03:26.852Z,7.35
2018-09-28T14:05:57.483Z,9.90
2018-09-28T14:08:28.257Z,7.93
2018-09-28T14:10:58.883Z,6.43
2018-09-28T14:13:29.496Z,8.60
2018-09-28T14:16:00.528Z,9.55
2018-09-28T14:18:31.709Z,6.73
2018-09-28T14:21:03.147Z,8.93
2018-09-28T14:23:34.984Z,11.33
2018-09-28T14:26:06.260Z,7.77
2018-09-28T14:28:37.506Z,8.10
2018-09-28T14:31:08.219Z,7.47
2018-09-28T14:33:38.897Z,9.17
2018-09-28T14:36:09.590Z,7.20
2018-09-28T14:38:40.251Z,9.93
2018-09-28T14:41:11.655Z,7.10
2018-09-28T14:43:42.700Z,6.73
2018-09-28T14:46:13.359Z,8.17
2018-09-28T14:48:44.022Z,8.17
2018-09-28T14:51:14.767Z,7.33
2018-09-28T14:53:45.383Z,6.73
2018-09-28T14:56:16.072Z,6.87
2018-09-28T14:58:46.775Z,9.50
2018-09-28T15:01:17.407Z,9.33
2018-09-28T15:03:48.024Z,6.40
2018-09-28T15:06:18.733Z,7.07
2018-09-28T15:08:49.514Z,6.87
2018-09-28T15:11:20.126Z,8.63
2018-09-28T15:13:50.764Z,5.83
2018-09-28T15:16:21.459Z,5.60
2018-09-28T15:18:52.176Z,5.97
2018-09-28T15:21:22.864Z,7.83
2018-09-28T15:23:53.537Z,10.60
2018-09-28T15:26:24.163Z,6.77
2018-09-28T15:28:54.798Z,7.50
2018-09-28T15:31:25.493Z,4.67
2018-09-28T15:33:56.231Z,5.67
2018-09-28T15:36:26.911Z,10.10
2018-09-28T15:38:57.547Z,6.60
2018-09-28T15:41:28.161Z,9.60
2018-09-28T15:43:58.794Z,7.07
2018-09-28T15:46:29.436Z,7.23
2018-09-28T15:49:00.056Z,8.17
2018-09-28T15:51:30.751Z,4.30
2018-09-28T15:54:01.424Z,7.43
2018-09-28T15:56:32.069Z,4.87
2018-09-28T15:59:02.859Z,5.47
2018-09-28T16:01:33.489Z,7.70
2018-09-28T16:04:04.155Z,10.77
2018-09-28T16:06:34.795Z,8.80
2018-09-28T16:09:07.436Z,7.73
2018-09-28T16:11:38.073Z,6.37
2018-09-28T16:14:08.749Z,8.23
2018-09-28T16:16:39.387Z,6.67
2018-09-28T16:19:10.068Z,8.37
2018-09-28T16:21:41.271Z,6.43
2018-09-28T16:24:14.953Z,6.43
2018-09-28T16:26:45.957Z,9.97
2018-09-28T16:29:16.583Z,7.33
2018-09-28T16:31:47.204Z,6.47
2018-09-28T16:34:17.784Z,7.87
2018-09-28T16:36:49.422Z,5.77
2018-09-28T16:39:20.596Z,7.80
2018-09-28T16:41:52.427Z,4.93
2018-09-28T16:44:24.220Z,8.07
2018-09-28T16:46:55.463Z,5.67
2018-09-28T16:49:26.905Z,10.13
2018-09-28T16:51:58.108Z,7.00
2018-09-28T16:54:29.430Z,6.43
2018-09-28T16:57:00.914Z,6.47
2018-09-28T16:59:32.195Z,9.37
2018-09-28T17:02:03.260Z,7.23
2018-09-28T17:04:34.589Z,8.57
2018-09-28T17:07:05.886Z,4.63
2018-09-28T17:09:37.183Z,6.73
2018-09-28T17:12:08.663Z,7.20
2018-09-28T17:14:39.950Z,7.87
2018-09-28T17:17:11.030Z,8.07
2018-09-28T17:19:42.275Z,8.83
2018-09-28T17:22:13.440Z,8.97
2018-09-28T17:24:44.561Z,7.83
2018-09-28T17:27:15.908Z,8.13
2018-09-28T17:29:47.103Z,9.43
2018-09-28T17:32:18.311Z,8.07
2018-09-28T17:34:50.518Z,12.77
2018-09-28T17:37:21.838Z,9.60
2018-09-28T17:39:53.064Z,9.70
2018-09-28T17:42:24.449Z,6.63
2018-09-28T17:44:55.664Z,9.93
2018-09-28T17:47:26.804Z,9.00
2018-09-28T17:49:57.803Z,11.30
2018-09-28T17:52:29.000Z,6.93
2018-09-28T17:55:00.027Z,9.17
2018-09-28T17:57:31.394Z,7.33
2018-09-28T18:00:02.444Z,8.07
2018-09-28T18:02:33.764Z,9.57
2018-09-28T18:05:05.084Z,9.53
2018-09-28T18:07:36.259Z,8.83
2018-09-28T18:10:07.764Z,6.67
2018-09-28T18:12:38.948Z,8.77
2018-09-28T18:15:10.204Z,6.77
2018-09-28T18:17:41.528Z,11.00
2018-09-28T18:20:12.638Z,5.90
2018-09-28T18:22:44.188Z,12.73
2018-09-28T18:25:15.505Z,7.07
2018-09-28T18:30:29.459Z,9.27
2018-09-28T18:33:01.328Z,10.53
2018-09-28T18:35:32.638Z,7.03
2018-09-28T18:38:03.835Z,13.07
2018-09-28T18:40:34.924Z,8.07
2018-09-28T18:43:06.051Z,10.10
2018-09-28T18:45:37.476Z,8.47
2018-09-28T18:48:08.663Z,9.43
2018-09-28T18:50:40.019Z,9.43
2018-09-28T18:53:11.263Z,9.00
2018-09-28T18:55:42.342Z,11.17
2018-09-28T18:58:12.940Z,6.40
2018-09-28T19:00:44.418Z,11.93
2018-09-28T19:03:16.064Z,8.60
2018-09-28T19:05:47.701Z,9.97
2018-09-28T19:08:18.741Z,11.47
2018-09-28T19:10:49.967Z,8.03
2018-09-28T19:13:21.113Z,8.37
2018-09-28T19:15:52.437Z,9.23
2018-09-28T19:18:23.967Z,5.40
2018-09-28T19:20:55.316Z,10.23
2018-09-28T19:23:26.660Z,8.20
2018-09-28T19:25:57.720Z,9.17
2018-09-28T19:28:29.020Z,8.50
2018-09-28T19:31:00.262Z,6.77
2018-09-28T19:33:31.475Z,7.90
2018-09-28T19:36:02.448Z,10.17
2018-09-28T19:38:33.808Z,10.57
2018-09-28T19:41:04.891Z,6.70
2018-09-28T19:43:36.048Z,12.80
2018-09-28T19:46:07.481Z,7.83
2018-09-28T19:48:38.781Z,11.23
2018-09-28T19:51:10.623Z,9.40
2018-09-28T19:53:42.030Z,8.77
2018-09-28T19:56:13.341Z,10.30
2018-09-28T19:58:44.525Z,9.07
2018-09-28T20:01:16.041Z,8.10
2018-09-28T20:03:47.319Z,7.50
2018-09-28T20:06:18.559Z,9.23
2018-09-28T20:08:49.717Z,14.27
2018-09-28T20:11:20.908Z,10.40
2018-09-28T20:13:52.270Z,10.03
2018-09-28T20:16:23.268Z,10.17
2018-09-28T20:18:54.267Z,16.23
2018-09-28T20:21:25.792Z,12.70
2018-09-28T20:23:56.929Z,11.97
2018-09-28T20:26:28.032Z,11.23
2018-09-28T20:28:59.039Z,9.37
2018-09-28T20:31:30.233Z,9.50
2018-09-28T20:34:01.687Z,6.37
2018-09-28T20:36:32.976Z,6.63
2018-09-28T20:39:05.246Z,7.23
2018-09-28T20:41:36.652Z,9.20
2018-09-28T20:44:08.400Z,6.53
2018-09-28T20:46:39.535Z,8.83
2018-09-28T20:49:10.898Z,9.57
2018-09-28T20:51:42.036Z,6.23
2018-09-28T20:54:13.583Z,7.80
2018-09-28T20:56:44.690Z,7.90
2018-09-28T20:59:15.873Z,9.60
2018-09-28T21:01:46.876Z,9.70
2018-09-28T21:04:18.060Z,8.53
2018-09-28T21:06:49.071Z,8.47
2018-09-28T21:09:20.045Z,8.73
2018-09-28T21:11:51.232Z,6.20
2018-09-28T21:14:22.439Z,8.13
2018-09-28T21:16:53.472Z,8.33
2018-09-28T21:19:25.089Z,6.40
2018-09-28T21:21:56.445Z,8.83
2018-09-28T21:24:28.134Z,8.93
2018-09-28T21:26:59.380Z,8.33
2018-09-28T21:29:30.341Z,9.83
2018-09-28T21:32:01.359Z,8.90
2018-09-28T21:34:33.235Z,9.00
2018-09-28T21:37:04.384Z,7.63
2018-09-28T21:39:35.972Z,7.30
2018-09-28T21:42:07.595Z,9.77
2018-09-28T21:44:38.691Z,9.23
2018-09-28T21:47:10.198Z,11.13
2018-09-28T21:49:41.524Z,6.97
2018-09-28T21:52:12.975Z,9.67
2018-09-28T21:54:44.807Z,8.47
2018-09-28T21:57:15.847Z,6.50
2018-09-28T21:59:47.023Z,7.70
2018-09-28T22:02:18.042Z,5.90
2018-09-28T22:04:49.026Z,7.10
2018-09-28T22:07:20.248Z,8.00
2018-09-28T22:09:51.909Z,8.10
2018-09-28T22:12:23.008Z,6.70
2018-09-28T22:14:53.995Z,10.60
2018-09-28T22:17:25.647Z,11.37
2018-09-28T22:19:57.420Z,7.20
2018-09-28T22:22:28.711Z,8.57
2018-09-28T22:25:00.169Z,10.57
2018-09-28T22:27:31.510Z,6.60
2018-09-28T22:30:02.504Z,6.90
2018-09-28T22:32:33.988Z,7.80
2018-09-28T22:35:05.471Z,8.77
2018-09-28T22:37:36.690Z,9.77
2018-09-28T22:40:07.919Z,5.63
2018-09-28T22:42:39.718Z,9.93
2018-09-28T22:45:11.045Z,9.20
2018-09-28T22:47:42.042Z,7.70
2018-09-28T22:50:13.059Z,8.60
2018-09-28T22:52:44.392Z,10.80
2018-09-28T22:55:15.723Z,7.77
2018-09-28T22:57:47.021Z,9.43
2018-09-28T23:00:18.367Z,7.00
2018-09-28T23:02:49.379Z,7.87
2018-09-28T23:05:20.412Z,10.37
2018-09-28T23:07:52.055Z,8.03
2018-09-28T23:10:23.328Z,10.43
2018-09-28T23:12:54.571Z,9.70
2018-09-28T23:15:25.748Z,7.17
2018-09-28T23:17:57.204Z,10.43
2018-09-28T23:20:28.356Z,9.20
2018-09-28T23:22:59.488Z,7.37
2018-09-28T23:25:30.731Z,9.67
2018-09-28T23:28:02.561Z,8.97
2018-09-28T23:30:33.861Z,8.97
2018-09-28T23:33:05.251Z,7.53
2018-09-28T23:35:36.259Z,10.27
2018-09-28T23:38:07.479Z,7.93
2018-09-28T23:40:38.672Z,9.53
2018-09-28T23:43:10.296Z,9.80
2018-09-28T23:45:41.623Z,7.47
2018-09-28T23:48:13.290Z,6.50
2018-09-28T23:50:44.601Z,11.73
2018-09-28T23:53:15.838Z,11.33
2018-09-28T23:55:47.197Z,7.03
2018-09-28T23:58:18.540Z,8.43
